x

Yucatan Basin - 120 Nm Ese Of Cozumel, Mx (42056) Wave Buoy

7:50am - Sun 1st Feb 2015 All times are CST. -6 hours from GMT.

  • Sig Wave height 4.9ft
  • Swell Direction
  • Peak Period 7s
  • Average Period 5s
  • Wind
    18mph, 20mph gusts
  • Sea Temp 81°f
  • 空気 Temp 79°f
  • Sea Pressure 1016.7mb
  •  Yucatan Basin - 120 Nm Ese Of Cozumel, Mx
  •  Yucatan Basin - 120 Nm Ese Of Cozumel, Mx

More Historic Weather Station data

Upgrade to MSW Pro to gain access to the past 30 days of data for over 8000 Wavebouys and Weather Stations around the globe.

Join Pro

Comparision Forecast

View Surf forecast
   
Sun 02/01 7:50am 5ft 7s 5s 18 20 mph 1016.7mb 81f 79f
6:50am 5ft 7s 5s 16 18 mph 1016.4mb 81f 78f
5:50am 5ft 7s 5s 16 18 mph 1016.3mb 81f 78f
4:50am 4.5ft 7s 5s 16 20 mph 1015.6mb 81f 78f
3:50am 5ft 7s 5s 18 22 mph 1015.4mb 81f 78f
2:50am 5ft 7s 5s 16 20 mph 1015.7mb 81f 77f
1:50am 5ft 7s 5s 16 20 mph 1015.8mb 81f 77f
12:50am 6ft 7s 5s 16 20 mph 1016.7mb 81f 77f
Sat 01/31 11:50pm 5.5ft 7s 5s 20 25 mph 1016.8mb 81f 77f
10:50pm 5ft 7s 5s 20 25 mph 1017.4mb 81f 77f
9:50pm 5ft 7s 5s 20 25 mph 1017.7mb 81f 77f
8:50pm 4.5ft 7s 5s 18 22 mph 1017.9mb 81f 77f
7:50pm 5ft 7s 5s 18 20 mph 1017.9mb 81f 77f
6:50pm 5ft 6s 5s 18 22 mph 1017.3mb 81f 77f
5:50pm 5ft 6s 5s 18 22 mph 1016.9mb 81f 77f
4:50pm 5ft 6s 5s 20 25 mph 1016.6mb 81f 76f
3:50pm 5.5ft 6s 5s 18 25 mph 1016.4mb 81f 76f
2:50pm 5ft 6s 5s 20 25 mph 1016.2mb 81f 76f
1:50pm 5.5ft 6s 5s 22 27 mph 1016.5mb 81f 76f
12:50pm 5ft 6s 5s 20 25 mph 1017.3mb 81f 76f
11:50am 6ft 6s 5s 20 25 mph 1018.2mb 81f 76f
10:50am 5.5ft 7s 5s 25 29 mph 1018.7mb 81f 76f
9:50am 5.5ft 6s 5s 25 27 mph 1019.3mb 81f 76f
8:50am 5ft 6s 5s 22 27 mph 1019.1mb 81f 76f
7:50am 5ft 6s 5s 22 27 mph 1018.5mb 81f 76f
6:50am 5ft 7s 5s 20 25 mph 1018mb 81f 76f
5:50am 5ft 7s 5s 18 22 mph 1017.5mb 81f 76f
4:50am 5ft 6s 5s 18 22 mph 1017.3mb 81f 76f
3:50am 4.5ft 6s 5s 18 22 mph 1017mb 81f 76f
2:50am 5ft 7s 5s 18 20 mph 1017.1mb 81f 76f
1:50am 4.5ft 7s 5s 16 20 mph 1017.4mb 81f 77f
12:50am 5ft 7s 5s 18 20 mph 1018.1mb 81f 77f
Fri 01/30 11:50pm 4.5ft 6s 5s 16 22 mph 1018.6mb 81f 77f
10:50pm 5ft 7s 5s 16 20 mph 1019mb 81f 77f
9:50pm 4.5ft 7s 5s 13 16 mph 1019.4mb 81f 77f
8:50pm 4.5ft 8s 5s 13 18 mph 1019.3mb 81f 76f
7:50pm 4.5ft 8s 5s 16 18 mph 1018.9mb 81f 76f
6:50pm 4ft 7s 5s 16 20 mph 1018.5mb 81f 76f
5:50pm 4.5ft 6s 5s 16 20 mph 1017.9mb 81f 76f
4:50pm 4.5ft 7s 5s 13 18 mph 1017.7mb 81f 76f
3:50pm 4.5ft 7s 5s 13 16 mph 1017.5mb 81f 76f
2:50pm 4.5ft 7s 5s 13 18 mph 1017.5mb 81f 76f
1:50pm 4.5ft 6s 5s 13 18 mph 1018mb 81f 76f
12:50pm 4.5ft 7s 5s 16 18 mph 1018.6mb 81f 76f
11:50am 4.5ft 8s 5s 13 18 mph 1019.4mb 81f 77f
10:50am 4.5ft 7s 5s 13 18 mph 1020.1mb 81f 77f
9:50am 4.5ft 7s 5s 16 18 mph 1020.3mb 81f 76f
8:50am 4.5ft 7s 5s 13 16 mph 1020.2mb 81f 77f
7:50am 4.5ft 8s 5s 13 18 mph 1019.6mb 81f 76f
6:50am 5ft 8s 5s 13 18 mph 1019.2mb 81f 76f
5:50am 5ft 7s 5s 13 16 mph 1018.9mb 81f 76f
4:50am 5ft 7s 5s 13 18 mph 1018.2mb 81f 76f
3:50am 5ft 7s 5s 16 20 mph 1017.9mb 81f 76f
2:50am 5ft 7s 5s 18 22 mph 1017.8mb 81f 76f
1:50am 5ft 7s 5s 16 20 mph 1018.1mb 81f 76f
12:50am 6ft 8s 6s 18 20 mph 1018.4mb 81f 76f
Thu 01/29 11:50pm 4.5ft 7s 5s 16 18 mph 1018.8mb 81f 76f
10:50pm 4.5ft 7s 5s 13 18 mph 1019mb 81f 76f
9:50pm 4.5ft 7s 5s 16 18 mph 1019.3mb 81f 76f
8:50pm 4.5ft 7s 5s 13 18 mph 1019.3mb 81f 76f
7:50pm 4.5ft 7s 5s 16 20 mph 1019mb 81f 75f
6:50pm 5ft 6s 5s 16 20 mph 1018.5mb 81f 75f
5:50pm 5ft 7s 5s 16 20 mph 1018.2mb 81f 75f
4:50pm 5ft 7s 5s 18 22 mph 1017.7mb 81f 75f
3:50pm 5ft 7s  -  18 22 mph 1017.4mb 81f 76f
2:50pm 5ft 6s 5s 18 22 mph 1017.4mb 81f 76f
1:50pm 4.5ft 7s 5s 16 20 mph 1017.6mb 81f 76f
12:50pm 5ft 7s 5s 16 22 mph 1018.5mb 81f 75f
11:50am 5ft 7s 5s 16 20 mph 1019.3mb 81f 75f
10:50am 5ft 7s 5s 16 20 mph 1020.1mb 81f 74f
9:50am 6ft 7s 5s 20 25 mph 1020.3mb 81f 74f
8:50am 6ft 7s 5s 20 25 mph 1020.2mb 81f 73f
7:50am 6ft 7s 5s 20 27 mph 1019.4mb 81f 73f
6:50am 6.5ft 7s 5s 20 25 mph 1018.7mb 81f 73f
5:50am 6.5ft 7s 5s 20 22 mph 1018.2mb 81f 73f
4:50am 6.5ft 6s 5s 20 27 mph 1017.3mb 81f 74f
3:50am 5ft 6s 5s 22 29 mph 1016.9mb 81f 74f
2:50am 4.5ft 6s 5s 25 29 mph 1016.7mb 81f 75f
1:50am 4ft 5s 5s 22 27 mph 1017mb 81f 76f
12:50am 3.5ft 5s 5s 16 20 mph 1017.7mb 81f 77f
Wed 01/28 11:50pm 3.5ft 6s 5s 16 20 mph 1018mb 81f 77f
10:50pm 3.5ft 6s 5s 16 20 mph 1018.6mb 81f 77f
9:50pm 3.5ft 5s 5s 16 20 mph 1018.8mb 81f 76f
8:50pm 3.5ft 6s 5s 18 20 mph 1018.7mb 81f 76f
7:50pm 3.5ft 6s 5s 16 20 mph 1018.5mb 81f 76f
6:50pm 3.5ft 5s 5s 16 20 mph 1018mb 81f 76f
5:50pm 3.5ft 5s 5s 16 22 mph 1017.6mb 81f 76f
4:50pm 3.5ft 5s 4s 16 20 mph 1017.5mb 81f 76f
3:50pm 3.5ft 5s 5s 16 20 mph 1017.2mb 81f 76f
2:50pm 3.5ft 5s 4s 16 20 mph 1017.3mb 81f 76f